Latest Weather Observations for Moruya Airport

IDN60901

Issued at 2:31 pm EST Friday 23 August 2019 (issued every 10 minutes, with the page automatically refreshed every 10 minutes)

About weather observations | Map of Canberra area stations | Latest observations for Canberra area | Other Formats
Station Details ID: 069148 Name: MORUYA AIRPORT AWS Lat: -35.90 Lon: 150.14 Height: 4.0 m
Data from the previous 72 hours. | See also: Recent months at Moruya Airport
Date/Time
EST
Temp
°C
App
Temp
°C
Dew
Point
°C
Rel
Hum
%
Delta-T
°C
Wind Press
QNH
hPa
Press
MSL
hPa
Rain since
9am
mm
Dir  Spd
km/h
Gust
km/h
Spd
kts
Gust
kts
23/02:30pm 14.6 8.9 5.1 53 4.4 NE 24 33 13 18 1022.0 1022.0 0.0
23/02:00pm 14.4 8.6 4.4 51 4.6 NE 24 35 13 19 1022.2 1022.2 0.0
23/01:30pm 14.8 9.1 4.8 51 4.7 NE 24 32 13 17 1022.6 1022.6 0.0
23/01:00pm 14.9 9.4 4.0 48 5.0 ENE 22 28 12 15 1023.3 1023.3 0.0
23/12:30pm 14.4 9.3 3.2 47 5.0 ENE 19 22 10 12 1023.9 1023.9 0.0
23/12:00pm 13.9 9.0 1.9 44 5.2 ENE 17 20 9 11 1024.5 1024.5 0.0
23/11:30am 13.6 8.7 1.9 45 5.1 ENE 17 20 9 11 1025.3 1025.3 0.0
23/11:00am 13.3 8.6 1.0 43 5.2 ENE 15 17 8 9 1025.9 1025.9 0.0
23/10:30am 13.5 10.0 1.2 43 5.3 E 9 15 5 8 1026.5 1026.5 0.0
23/10:00am 13.0 9.3 0.1 41 5.3 SSW 9 13 5 7 1026.7 1026.7 0.0
23/09:30am 12.7 8.9 -0.5 40 5.4 NW 9 15 5 8 1026.8 1026.8 0.0
23/09:00am 11.2 7.3 -1.2 42 4.9 WSW 9 13 5 7 1027.0 1027.0 0.0
23/08:30am 9.2 5.8 -0.9 49 3.9 W 7 13 4 7 1027.0 1027.0 0.0
23/08:00am 7.2 4.0 -0.5 58 2.9 WSW 6 7 3 4 1026.7 1026.7 0.0
23/07:30am 3.5 1.0 -1.3 71 1.7 W 2 6 1 3 1026.4 1026.4 0.0
23/07:00am 0.9 -2.7 -3.4 73 1.5 W 6 9 3 5 1026.1 1026.1 0.0
23/06:30am 1.4 -2.3 -2.7 74 1.4 WSW 7 9 4 5 1025.8 1025.8 0.0
23/06:00am 1.3 -2.5 -3.6 70 1.7 W 7 11 4 6 1025.4 1025.4 0.0
23/05:30am 2.8 -1.6 -2.3 69 1.8 W 11 19 6 10 1025.2 1025.2 0.0
23/05:00am 2.4 -2.0 -2.1 72 1.6 WSW 11 17 6 9 1025.0 1025.0 0.0
23/04:30am 1.0 -3.1 -3.1 74 1.4 WSW 9 17 5 9 1024.8 1024.8 0.0
23/04:00am 1.9 -2.2 -2.8 71 1.6 WSW 9 11 5 6 1024.6 1024.6 0.0
23/03:30am 1.0 -3.1 -2.7 76 1.3 W 9 13 5 7 1024.7 1024.7 0.0
23/03:00am 0.7 -3.0 -2.9 77 1.2 WSW 7 13 4 7 1024.9 1024.9 0.0
23/02:30am 0.8 -3.6 -2.1 81 1.0 SW 11 15 6 8 1024.8 1024.8 0.0
23/02:00am 0.9 -2.8 -3.0 75 1.4 W 7 9 4 5 1025.0 1025.0 0.0
23/01:30am 1.0 -2.7 -3.1 74 1.4 W 7 11 4 6 1025.2 1025.2 0.0
23/01:00am 0.6 -3.6 -3.9 72 1.5 WNW 9 13 5 7 1025.1 1025.1 0.0
23/12:30am 1.5 -2.0 -3.0 72 1.6 WNW 6 7 3 4 1025.0 1025.0 0.0
23/12:00am 2.0 -1.6 -3.3 68 1.8 WSW 6 7 3 4 1024.8 1024.8 0.0
 
Date/Time
EST
Temp
°C
App
Temp
°C
Dew
Point
°C
Rel
Hum
%
Delta-T
°C
Wind Press
QNH
hPa
Press
MSL
hPa
Rain since
9am
mm
Dir  Spd
km/h
Gust
km/h
Spd
kts
Gust
kts
22/11:30pm 2.5 0.1 -3.2 66 1.9 CALM 0 0 0 0 1024.6 1024.6 0.0
22/11:00pm 2.9 0.5 -3.4 63 2.1 CALM 0 6 0 3 1024.6 1024.6 0.0
22/10:30pm 3.5 -0.3 -3.5 60 2.4 W 7 9 4 5 1024.5 1024.5 0.0
22/10:00pm 6.0 1.7 -1.9 57 2.9 SSW 11 15 6 8 1024.4 1024.4 0.0
22/09:30pm 6.6 2.9 -3.1 50 3.5 W 7 9 4 5 1024.4 1024.4 0.0
22/09:00pm 7.4 2.9 -2.9 48 3.7 SW 11 11 6 6 1024.1 1024.1 0.0
22/08:30pm 7.9 3.8 -3.3 45 4.1 SW 9 13 5 7 1023.6 1023.6 0.0
22/08:00pm 9.9 4.6 -3.4 39 4.9 SW 15 20 8 11 1023.0 1023.0 0.0
22/07:30pm 10.6 4.9 -3.8 36 5.3 SSW 17 20 9 11 1022.2 1022.2 0.0
22/07:00pm 10.9 5.5 -4.7 33 5.6 SSW 15 19 8 10 1021.7 1021.7 0.0
22/06:30pm 11.7 6.7 -4.4 32 5.9 SSW 13 17 7 9 1021.1 1021.1 0.0
22/06:00pm 12.6 6.8 -4.5 30 6.3 SSW 17 24 9 13 1020.4 1020.4 0.0
22/05:30pm 13.2 7.0 -4.9 28 6.7 SSW 19 26 10 14 1019.7 1019.7 0.0
22/05:00pm 14.2 7.0 -5.0 26 7.2 SSW 24 32 13 17 1019.0 1019.0 0.0
22/04:30pm 15.0 7.9 -4.3 26 7.4 SSW 24 41 13 22 1018.3 1018.3 0.0
22/04:00pm 15.7 8.1 -5.3 23 7.9 SW 26 37 14 20 1017.4 1017.4 0.0
22/03:30pm 16.1 8.3 -3.4 26 7.7 SW 28 41 15 22 1016.7 1016.7 0.0
22/03:00pm 16.1 7.5 -3.9 25 7.8 SSW 32 50 17 27 1016.2 1016.2 0.0
22/02:34pm 16.6 8.8 -4.0 24 8.1 SSW 28 46 15 25 1016.2 1016.2 0.0
22/02:30pm 16.4 8.2 -3.7 25 7.9 SSW 30 41 16 22 1016.0 1016.0 0.0
22/02:04pm 15.6 7.7 -4.3 25 7.7 SSW 28 50 15 27 1015.8 1015.8 0.0
22/02:00pm 15.3 7.1 -3.6 27 7.4 SSW 30 46 16 25 1015.8 1015.8 0.0
22/01:30pm 14.3 4.3 -4.4 27 7.1 SSW 39 69 21 37 1015.3 1015.3 0.0
22/01:00pm 14.6 5.7 0.5 38 6.0 S 37 57 20 31 1015.1 1015.1 0.0
22/12:48pm 14.5 6.8 0.0 37 6.1 S 30 48 16 26 1015.0 1015.0 0.0
22/12:30pm 15.2 8.2 -0.5 34 6.6 S 26 37 14 20 1014.6 1014.6 0.0
22/12:00pm 15.7 7.8 -1.8 30 7.1 SW 30 56 16 30 1014.6 1014.6 0.0
22/11:30am 15.6 6.2 -2.8 28 7.3 SSW 37 63 20 34 1014.5 1014.5 0.0
22/11:11am 15.5 8.0 -1.5 31 7.0 SSW 28 46 15 25 1014.2 1014.2 0.0
22/11:00am 15.5 7.1 -2.4 29 7.2 SSW 32 46 17 25 1014.2 1014.2 0.0
22/10:30am 15.4 7.4 -2.5 29 7.2 SW 30 44 16 24 1013.8 1013.8 0.0
22/10:00am 15.4 7.0 -2.5 29 7.2 SSW 32 59 17 32 1013.3 1013.3 0.0
22/09:30am 16.1 7.0 -3.4 26 7.7 SW 35 54 19 29 1013.0 1013.0 0.0
22/09:00am 16.2 7.1 -3.3 26 7.8 SW 35 57 19 31 1012.0 1012.0 0.0
22/08:30am 16.3 6.7 -1.7 29 7.4 SW 39 57 21 31 1011.1 1011.1 0.0
22/08:00am 16.5 7.8 -0.2 32 7.1 SW 35 59 19 32 1010.4 1010.4 0.0
22/07:57am 16.3 8.6 -0.4 32 7.1 SW 30 54 16 29 1010.3 1010.3 0.0
22/07:30am 16.3 10.6 0.8 35 6.7 SW 20 37 11 20 1009.7 1009.7 0.0
22/07:05am 15.9 8.7 0.9 36 6.5 SW 28 54 15 29 1009.3 1009.3 0.0
22/07:00am 15.8 9.4 0.8 36 6.5 SW 24 54 13 29 1009.2 1009.2 0.0
22/06:30am 16.1 8.0 1.0 36 6.6 SW 33 48 18 26 1008.6 1008.6 0.0
22/06:21am 16.3 9.1 0.8 35 6.7 SW 28 54 15 29 1008.1 1008.1 0.0
22/06:00am 16.2 9.8 1.1 36 6.6 SW 24 37 13 20 1008.0 1008.0 0.0
22/05:30am 16.2 10.8 1.5 37 6.5 SW 19 32 10 17 1007.2 1007.2 0.0
22/05:00am 16.0 10.7 1.7 38 6.3 WSW 19 26 10 14 1006.9 1006.9 0.0
22/04:30am 12.6 9.2 1.9 48 4.6 SSW 9 13 5 7 1006.5 1006.5 0.0
22/04:00am 14.9 11.4 1.4 40 5.9 SW 9 17 5 9 1006.4 1006.4 0.0
22/03:30am 16.4 11.3 0.5 34 6.9 W 17 33 9 18 1006.3 1006.3 0.0
22/03:00am 16.8 12.1 0.9 34 7.0 W 15 26 8 14 1006.7 1006.7 0.0
22/02:30am 16.6 11.9 1.1 35 6.8 W 15 24 8 13 1006.9 1006.9 0.0
22/02:00am 16.7 11.3 1.2 35 6.8 W 19 32 10 17 1007.3 1007.3 0.0
22/01:30am 16.1 10.7 1.0 36 6.6 W 19 43 10 23 1007.5 1007.5 0.0
22/01:25am 15.5 11.2 1.3 38 6.2 W 13 39 7 21 1007.7 1007.7 0.0
22/01:00am 10.3 7.4 1.7 55 3.6 NW 6 15 3 8 1007.7 1007.7 0.0
22/12:30am 9.9 7.7 1.0 54 3.7 N 2 9 1 5 1008.1 1008.1 0.0
22/12:00am 11.2 8.0 0.6 48 4.4 NW 7 9 4 5 1008.5 1008.5 0.0
 
Date/Time
EST
Temp
°C
App
Temp
°C
Dew
Point
°C
Rel
Hum
%
Delta-T
°C
Wind Press
QNH
hPa
Press
MSL
hPa
Rain since
9am
mm
Dir  Spd
km/h
Gust
km/h
Spd
kts
Gust
kts
21/11:30pm 14.7 11.5 0.5 38 6.0 NW 7 15 4 8 1008.5 1008.5 0.0
21/11:00pm 15.2 11.7 1.4 39 6.0 W 9 20 5 11 1009.1 1009.1 0.0
21/10:30pm 15.0 11.5 1.2 39 6.0 WNW 9 13 5 7 1009.7 1009.7 0.0
21/10:00pm 12.8 10.2 0.9 44 5.0 SW 4 9 2 5 1010.1 1010.1 0.0
21/09:30pm 15.9 12.0 1.2 37 6.4 W 11 17 6 9 1010.5 1010.5 0.0
21/09:00pm 16.0 12.1 1.3 37 6.4 WNW 11 20 6 11 1010.8 1010.8 0.0
21/08:30pm 15.8 12.2 0.4 35 6.6 WNW 9 15 5 8 1011.2 1011.2 0.0
21/08:00pm 16.8 12.5 0.9 34 7.0 WNW 13 20 7 11 1011.3 1011.3 0.0
21/07:30pm 16.9 12.5 0.5 33 7.1 WNW 13 26 7 14 1011.4 1011.4 0.0
21/07:00pm 17.1 13.1 0.7 33 7.2 WNW 11 20 6 11 1011.3 1011.3 0.0
21/06:30pm 17.9 13.5 0.6 31 7.6 W 13 22 7 12 1011.4 1011.4 0.0
21/06:00pm 18.0 14.0 0.2 30 7.8 W 11 19 6 10 1010.7 1010.7 0.0
21/05:30pm 18.7 15.0 -0.2 28 8.2 WNW 9 20 5 11 1010.2 1010.2 0.0
21/05:00pm 20.1 15.2 -0.5 25 9.0 W 15 26 8 14 1010.7 1010.7 0.0
21/04:30pm 21.5 15.7 -1.7 21 10.0 WSW 19 30 10 16 1009.7 1009.7 0.0
21/04:00pm 21.6 15.7 -1.0 22 9.9 W 20 41 11 22 1010.0 1010.0 0.0
21/03:30pm 22.3 14.4 -1.7 20 10.4 SW 30 44 16 24 1009.8 1009.8 0.0
21/03:00pm 23.0 16.4 -0.5 21 10.6 WSW 24 41 13 22 1009.8 1009.8 0.0
21/02:30pm 24.0 18.7 -0.3 20 11.0 WSW 17 32 9 17 1009.5 1009.5 0.0
21/02:00pm 23.7 17.6 -2.0 18 11.3 WSW 20 30 11 16 1009.1 1009.1 0.0
21/01:30pm 22.8 16.7 -2.7 18 10.9 WSW 20 35 11 19 1009.3 1009.3 0.0
21/01:00pm 23.2 15.2 -2.4 18 11.1 SW 30 50 16 27 1009.6 1009.6 0.0
21/12:59pm 23.5 16.0 -1.4 19 11.0 SW 28 46 15 25 1009.5 1009.5 0.0
21/12:30pm 23.3 16.3 -0.2 21 10.6 WSW 26 43 14 23 1009.9 1009.9 0.0
21/12:00pm 23.5 17.3 -0.1 21 10.7 SW 22 32 12 17 1010.2 1010.2 0.0
21/11:30am 22.4 15.4 -0.3 22 10.2 WSW 26 39 14 21 1010.7 1010.7 0.0
21/11:01am 22.3 14.7 0.8 24 9.8 WSW 30 50 16 27 1011.4 1011.4 0.0
21/11:00am 22.2 14.6 0.7 24 9.8 WSW 30 46 16 25 1011.3 1011.3 0.0
21/10:49am 22.2 16.8 1.3 25 9.6 SE 19 44 10 24 1011.4 1011.4 0.0
21/10:30am 19.4 15.9 3.6 35 7.5 ENE 11 15 6 8 1011.5 1011.5 0.0
21/10:00am 19.5 16.4 3.6 35 7.5 ENE 9 15 5 8 1011.0 1011.0 0.0
21/09:30am 18.3 16.3 6.2 45 6.0 SSE 6 7 3 4 1011.0 1011.0 0.0
21/09:00am 15.7 14.6 5.3 50 4.9 CALM 0 0 0 0 1011.5 1011.5 0.0
21/08:30am 12.6 9.9 3.8 55 3.9 SW 7 11 4 6 1011.5 1011.5 0.0
21/08:00am 11.8 9.4 4.3 60 3.4 NNW 6 11 3 6 1011.1 1011.1 0.0
21/07:30am 8.4 5.9 3.7 72 2.0 NNW 6 9 3 5 1011.0 1011.0 0.0
21/07:00am 5.8 3.0 2.3 78 1.4 SW 6 13 3 7 1011.1 1011.1 0.0
21/06:30am 6.7 3.3 1.6 70 2.1 NNW 9 13 5 7 1011.0 1011.0 0.0
21/06:00am 6.6 3.2 1.7 71 2.0 NW 9 13 5 7 1011.1 1011.1 0.0
21/05:30am 7.7 3.8 1.3 64 2.6 NW 11 13 6 7 1011.3 1011.3 0.0
21/05:00am 8.0 4.9 1.6 64 2.6 NW 7 11 4 6 1011.1 1011.1 0.0
21/04:30am 9.1 6.3 2.2 62 2.9 NNW 6 11 3 6 1011.4 1011.4 0.0
21/04:00am 8.9 5.5 1.6 60 3.0 N 9 11 5 6 1011.6 1011.6 0.0
21/03:30am 10.8 7.5 2.6 57 3.5 NW 9 13 5 7 1011.8 1011.8 0.0
21/03:00am 9.6 6.7 2.7 62 2.9 NW 7 13 4 7 1012.1 1012.1 0.0
21/02:30am 5.0 2.0 1.1 76 1.5 WNW 6 11 3 6 1012.8 1012.8 0.0
21/02:00am 4.8 1.7 0.4 73 1.7 N 6 7 3 4 1013.1 1013.1 0.0
21/01:30am 5.8 2.6 1.0 71 1.9 NNE 7 9 4 5 1013.7 1013.7 0.0
21/01:00am 5.6 3.3 0.6 70 1.9 N 2 7 1 4 1014.2 1014.2 0.0
21/12:30am 6.3 3.1 0.8 68 2.2 N 7 9 4 5 1014.7 1014.7 0.0
21/12:00am 7.6 4.5 1.5 65 2.5 NNW 7 11 4 6 1015.0 1015.0 0.0
 
Date/Time
EST
Temp
°C
App
Temp
°C
Dew
Point
°C
Rel
Hum
%
Delta-T
°C
Wind Press
QNH
hPa
Press
MSL
hPa
Rain since
9am
mm
Dir  Spd
km/h
Gust
km/h
Spd
kts
Gust
kts
20/11:30pm 7.1 3.5 0.8 64 2.5 NNW 9 13 5 7 1015.3 1015.3 0.0
20/11:00pm 7.5 3.9 0.3 60 2.8 NNW 9 15 5 8 1015.8 1015.8 0.0
20/10:30pm 9.4 5.9 1.1 56 3.4 N 9 15 5 8 1016.3 1016.3 0.0
20/10:00pm 9.5 6.3 0.7 54 3.6 NNW 7 11 4 6 1016.5 1016.5 0.0
20/09:30pm 10.4 6.4 0.7 51 4.0 N 11 17 6 9 1016.8 1016.8 0.0
20/09:00pm 11.8 8.2 0.6 46 4.6 NNW 9 15 5 8 1017.2 1017.2 0.0
20/08:30pm 12.6 9.0 0.7 44 5.0 WNW 9 15 5 8 1017.2 1017.2 0.0
20/08:00pm 13.6 9.6 0.6 41 5.5 NW 11 17 6 9 1017.2 1017.2 0.0
20/07:30pm 14.5 9.3 0.4 38 6.0 NW 17 26 9 14 1016.8 1016.8 0.0
20/07:00pm 15.7 11.2 -0.1 34 6.7 W 13 20 7 11 1016.4 1016.4 0.0
20/06:30pm 16.5 9.9 -0.2 32 7.1 W 24 41 13 22 1016.3 1016.3 0.0
20/06:00pm 16.9 11.1 -0.3 31 7.3 W 20 35 11 19 1016.3 1016.3 0.0
20/05:30pm 17.9 11.2 -0.8 28 8.0 W 24 37 13 20 1015.9 1015.9 0.0
20/05:00pm 19.2 13.9 -0.7 26 8.6 W 17 33 9 18 1015.3 1015.3 0.0
20/04:30pm 20.6 15.6 -1.2 23 9.4 WSW 15 24 8 13 1015.0 1015.0 0.0
20/04:00pm 21.1 16.2 -0.8 23 9.6 WSW 15 24 8 13 1015.0 1015.0 0.0
20/03:30pm 19.8 16.6 3.1 33 7.8 ENE 9 13 5 7 1014.9 1014.9 0.0
20/03:00pm 19.2 15.2 4.9 39 6.9 NE 15 19 8 10 1015.1 1015.1 0.0

Latest Capital City Observations: Canberra | Sydney | Melbourne | Brisbane | Adelaide | Perth | Hobart | Darwin

Other formats

Comma delimited format used in spreadsheet applications
http://www.bom.gov.au/fwo/IDN60903/IDN60903.95937.axf

JavaScript Object Notation format (JSON) in row-major order
http://www.bom.gov.au/fwo/IDN60903/IDN60903.95937.json

Data quality

Most of these data are generated automatically and are frequently updated. Quality checks on data are not normally performed. It is possible for incorrect values to appear. Refer to information at About Latest Weather Observations and please check the disclaimer before using these data.